HUN8MZ LTFM-LHBP
Flight info
| Callsign | HUN8MZ |
|---|---|
| Flight time | 1h 28m |
| Altitude | 36000 |
| Route | TUDBU Q26 ETUBA DCT DEGET DCT KEZAL |
| Aircraft | B738/M-SDE2E3FGHIJ2J5RWXY/LB1 |
Departure
| Time | 2026-05-07 17:35 |
|---|---|
| Airport | İstanbul Airport (LTFM) |
Arrival
| Time | 2026-05-07 19:03 |
|---|---|
| Airport | Budapest Liszt Ferenc International Airport (LHBP) |
| Time | Latitude | Longitude | Altitude | Speed | Heading |
|---|---|---|---|---|---|
| 2026-05-07 17:09 | 41.25976 | 28.73562 | 333 ft | 0 kts | 107° |
| 2026-05-07 17:20 | 41.25976 | 28.73559 | 333 ft | 2 kts | 107° |
| 2026-05-07 17:20 | 41.25985 | 28.73526 | 330 ft | 4 kts | 112° |
| 2026-05-07 17:21 | 41.25997 | 28.73494 | 328 ft | 4 kts | 123° |
| 2026-05-07 17:21 | 41.26014 | 28.73469 | 331 ft | 4 kts | 153° |
| 2026-05-07 17:21 | 41.26030 | 28.73464 | 329 ft | 0 kts | 197° |
| 2026-05-07 17:26 | 41.26028 | 28.73464 | 333 ft | 1 kts | 196° |
| 2026-05-07 17:26 | 41.26017 | 28.73459 | 330 ft | 2 kts | 196° |
| 2026-05-07 17:27 | 41.26003 | 28.73454 | 333 ft | 2 kts | 196° |
| 2026-05-07 17:27 | 41.25991 | 28.73449 | 333 ft | 2 kts | 196° |
| 2026-05-07 17:27 | 41.25979 | 28.73444 | 332 ft | 2 kts | 196° |
| 2026-05-07 17:27 | 41.25967 | 28.73440 | 330 ft | 2 kts | 196° |
| 2026-05-07 17:28 | 41.25956 | 28.73436 | 331 ft | 2 kts | 196° |
| 2026-05-07 17:28 | 41.25946 | 28.73431 | 330 ft | 2 kts | 196° |
| 2026-05-07 17:28 | 41.25923 | 28.73416 | 333 ft | 7 kts | 217° |
| 2026-05-07 17:28 | 41.25911 | 28.73343 | 333 ft | 9 kts | 268° |
| 2026-05-07 17:29 | 41.25909 | 28.73263 | 329 ft | 8 kts | 268° |
| 2026-05-07 17:29 | 41.25908 | 28.73211 | 329 ft | 8 kts | 269° |
| 2026-05-07 17:29 | 41.25928 | 28.73142 | 331 ft | 8 kts | 316° |
| 2026-05-07 17:29 | 41.25980 | 28.73125 | 333 ft | 8 kts | 358° |
| 2026-05-07 17:30 | 41.26038 | 28.73123 | 330 ft | 9 kts | 360° |
| 2026-05-07 17:30 | 41.26098 | 28.73123 | 332 ft | 8 kts | 360° |
| 2026-05-07 17:30 | 41.26156 | 28.73123 | 332 ft | 8 kts | 360° |
| 2026-05-07 17:30 | 41.26205 | 28.73095 | 332 ft | 8 kts | 305° |
| 2026-05-07 17:31 | 41.26215 | 28.73024 | 332 ft | 8 kts | 266° |
| 2026-05-07 17:31 | 41.26214 | 28.72959 | 333 ft | 0 kts | 270° |
| 2026-05-07 17:31 | 41.26214 | 28.72957 | 333 ft | 1 kts | 270° |
| 2026-05-07 17:32 | 41.26214 | 28.72911 | 333 ft | 7 kts | 270° |
| 2026-05-07 17:32 | 41.26214 | 28.72846 | 333 ft | 7 kts | 270° |
| 2026-05-07 17:32 | 41.26214 | 28.72783 | 333 ft | 7 kts | 270° |
| 2026-05-07 17:32 | 41.26213 | 28.72720 | 333 ft | 7 kts | 270° |
| 2026-05-07 17:33 | 41.26213 | 28.72649 | 333 ft | 8 kts | 270° |
| 2026-05-07 17:33 | 41.26213 | 28.72580 | 333 ft | 7 kts | 270° |
| 2026-05-07 17:33 | 41.26234 | 28.72526 | 332 ft | 7 kts | 343° |
| 2026-05-07 17:33 | 41.26271 | 28.72524 | 333 ft | 0 kts | 360° |
| 2026-05-07 17:34 | 41.26286 | 28.72523 | 329 ft | 10 kts | 353° |
| 2026-05-07 17:34 | 41.26491 | 28.72515 | 331 ft | 66 kts | 359° |
| 2026-05-07 17:35 | 41.27247 | 28.72505 | 330 ft | 148 kts | 359° |
| 2026-05-07 17:35 | 41.28471 | 28.72456 | 630 ft | 197 kts | 358° |
| 2026-05-07 17:35 | 41.29984 | 28.72480 | 1226 ft | 224 kts | 1° |
| 2026-05-07 17:35 | 41.31525 | 28.72503 | 2483 ft | 214 kts | 357° |
| 2026-05-07 17:36 | 41.33068 | 28.72505 | 3339 ft | 235 kts | 356° |
| 2026-05-07 17:36 | 41.34733 | 28.72301 | 3512 ft | 244 kts | 335° |
| 2026-05-07 17:36 | 41.36069 | 28.70956 | 3612 ft | 245 kts | 309° |
| 2026-05-07 17:36 | 41.37200 | 28.69201 | 3700 ft | 253 kts | 308° |
| 2026-05-07 17:37 | 41.38340 | 28.67398 | 3890 ft | 256 kts | 308° |
| 2026-05-07 17:37 | 41.39489 | 28.65590 | 4131 ft | 256 kts | 309° |
| 2026-05-07 17:37 | 41.40641 | 28.63792 | 4358 ft | 264 kts | 309° |
| 2026-05-07 17:37 | 41.41845 | 28.61931 | 5314 ft | 263 kts | 310° |
| 2026-05-07 17:38 | 41.43046 | 28.60085 | 6229 ft | 265 kts | 310° |
| 2026-05-07 17:38 | 41.44267 | 28.58214 | 7050 ft | 269 kts | 310° |
| 2026-05-07 17:38 | 41.45503 | 28.56325 | 7868 ft | 272 kts | 310° |
| 2026-05-07 17:38 | 41.46756 | 28.54415 | 8696 ft | 275 kts | 311° |
| 2026-05-07 17:39 | 41.48006 | 28.52512 | 9519 ft | 278 kts | 311° |
| 2026-05-07 17:39 | 41.49292 | 28.50555 | 10274 ft | 283 kts | 311° |
| 2026-05-07 17:39 | 41.50641 | 28.48503 | 10538 ft | 307 kts | 311° |
| 2026-05-07 17:39 | 41.52106 | 28.46275 | 10722 ft | 330 kts | 311° |
| 2026-05-07 17:40 | 41.53665 | 28.43902 | 11097 ft | 345 kts | 311° |
| 2026-05-07 17:40 | 41.55263 | 28.41468 | 11730 ft | 351 kts | 311° |
| 2026-05-07 17:40 | 41.56887 | 28.38994 | 12467 ft | 355 kts | 311° |
| 2026-05-07 17:40 | 41.58519 | 28.36507 | 13177 ft | 359 kts | 311° |
| 2026-05-07 17:41 | 41.60176 | 28.33978 | 13863 ft | 363 kts | 311° |
| 2026-05-07 17:41 | 41.61851 | 28.31421 | 14496 ft | 367 kts | 311° |
| 2026-05-07 17:41 | 41.63511 | 28.28884 | 15188 ft | 368 kts | 311° |
| 2026-05-07 17:41 | 41.65201 | 28.26299 | 15854 ft | 371 kts | 311° |
| 2026-05-07 17:42 | 41.66908 | 28.23687 | 16499 ft | 374 kts | 311° |
| 2026-05-07 17:42 | 41.68628 | 28.21052 | 17136 ft | 377 kts | 311° |
| 2026-05-07 17:42 | 41.70360 | 28.18395 | 17782 ft | 379 kts | 311° |
| 2026-05-07 17:42 | 41.72100 | 28.15723 | 18416 ft | 382 kts | 311° |
| 2026-05-07 17:43 | 41.73852 | 28.13032 | 18966 ft | 384 kts | 311° |
| 2026-05-07 17:43 | 41.75616 | 28.10321 | 19511 ft | 387 kts | 311° |
| 2026-05-07 17:43 | 41.77392 | 28.07586 | 20039 ft | 390 kts | 311° |
| 2026-05-07 17:43 | 41.79180 | 28.04831 | 20568 ft | 392 kts | 311° |
| 2026-05-07 17:44 | 41.80953 | 28.02098 | 21086 ft | 395 kts | 311° |
| 2026-05-07 17:44 | 41.82762 | 27.99305 | 21581 ft | 398 kts | 311° |
| 2026-05-07 17:44 | 41.84581 | 27.96496 | 22068 ft | 400 kts | 311° |
| 2026-05-07 17:44 | 41.86415 | 27.93659 | 22567 ft | 403 kts | 311° |
| 2026-05-07 17:45 | 41.88256 | 27.90809 | 23033 ft | 406 kts | 311° |
| 2026-05-07 17:45 | 41.90111 | 27.87935 | 23508 ft | 408 kts | 311° |
| 2026-05-07 17:45 | 41.91978 | 27.85040 | 23925 ft | 411 kts | 311° |
| 2026-05-07 17:45 | 41.93853 | 27.82130 | 24310 ft | 413 kts | 311° |
| 2026-05-07 17:46 | 41.95739 | 27.79200 | 24726 ft | 414 kts | 311° |
| 2026-05-07 17:46 | 41.97656 | 27.76297 | 25127 ft | 416 kts | 313° |
| 2026-05-07 17:46 | 41.99660 | 27.73481 | 25508 ft | 418 kts | 314° |
| 2026-05-07 17:46 | 42.01711 | 27.70693 | 25885 ft | 420 kts | 314° |
| 2026-05-07 17:47 | 42.03777 | 27.67911 | 26252 ft | 422 kts | 314° |
| 2026-05-07 17:47 | 42.05860 | 27.65101 | 26610 ft | 424 kts | 314° |
| 2026-05-07 17:47 | 42.07918 | 27.62310 | 26956 ft | 426 kts | 314° |
| 2026-05-07 17:47 | 42.10005 | 27.59464 | 27304 ft | 428 kts | 314° |
| 2026-05-07 17:48 | 42.12096 | 27.56598 | 27640 ft | 429 kts | 314° |
| 2026-05-07 17:48 | 42.14199 | 27.53707 | 27974 ft | 431 kts | 314° |
| 2026-05-07 17:48 | 42.16305 | 27.50806 | 28301 ft | 433 kts | 314° |
| 2026-05-07 17:48 | 42.18415 | 27.47894 | 28618 ft | 435 kts | 313° |
| 2026-05-07 17:49 | 42.20530 | 27.44972 | 28941 ft | 436 kts | 314° |
| 2026-05-07 17:49 | 42.22632 | 27.42066 | 29246 ft | 438 kts | 313° |
| 2026-05-07 17:49 | 42.24790 | 27.39078 | 29549 ft | 440 kts | 313° |
| 2026-05-07 17:49 | 42.26926 | 27.36120 | 29917 ft | 440 kts | 313° |
| 2026-05-07 17:50 | 42.29056 | 27.33167 | 30356 ft | 437 kts | 313° |
| 2026-05-07 17:50 | 42.31146 | 27.30265 | 30765 ft | 434 kts | 313° |
| 2026-05-07 17:50 | 42.33245 | 27.27350 | 31136 ft | 433 kts | 313° |
| 2026-05-07 17:50 | 42.35342 | 27.24432 | 31444 ft | 433 kts | 313° |
| 2026-05-07 17:51 | 42.37437 | 27.21515 | 31745 ft | 432 kts | 313° |
| 2026-05-07 17:51 | 42.39530 | 27.18598 | 32105 ft | 431 kts | 313° |
| 2026-05-07 17:51 | 42.41619 | 27.15683 | 32452 ft | 429 kts | 313° |
| 2026-05-07 17:51 | 42.43695 | 27.12784 | 32780 ft | 428 kts | 313° |
| 2026-05-07 17:52 | 42.45774 | 27.09878 | 33091 ft | 428 kts | 313° |
| 2026-05-07 17:52 | 42.47821 | 27.07013 | 33401 ft | 427 kts | 313° |
| 2026-05-07 17:52 | 42.49882 | 27.04126 | 33733 ft | 425 kts | 313° |
| 2026-05-07 17:52 | 42.51935 | 27.01247 | 34054 ft | 424 kts | 312° |
| 2026-05-07 17:53 | 42.53988 | 26.98366 | 34295 ft | 424 kts | 312° |
| 2026-05-07 17:53 | 42.56039 | 26.95483 | 34488 ft | 425 kts | 312° |
| 2026-05-07 17:53 | 42.58092 | 26.92596 | 34707 ft | 425 kts | 312° |
| 2026-05-07 17:53 | 42.60145 | 26.89705 | 34951 ft | 425 kts | 312° |
| 2026-05-07 17:54 | 42.62197 | 26.86813 | 35162 ft | 425 kts | 312° |
| 2026-05-07 17:54 | 42.64245 | 26.83923 | 35344 ft | 426 kts | 312° |
| 2026-05-07 17:54 | 42.66297 | 26.81024 | 35560 ft | 426 kts | 312° |
| 2026-05-07 17:54 | 42.68351 | 26.78122 | 35801 ft | 425 kts | 312° |
| 2026-05-07 17:55 | 42.70395 | 26.75228 | 36025 ft | 424 kts | 311° |
| 2026-05-07 17:55 | 42.72422 | 26.72356 | 36051 ft | 428 kts | 311° |
| 2026-05-07 17:55 | 42.76550 | 26.66500 | 36056 ft | 427 kts | 311° |
| 2026-05-07 17:56 | 42.80660 | 26.60659 | 36055 ft | 424 kts | 311° |
| 2026-05-07 17:56 | 42.84776 | 26.55006 | 36053 ft | 423 kts | 313° |
| 2026-05-07 17:57 | 42.88337 | 26.50353 | 36059 ft | 421 kts | 314° |
| 2026-05-07 17:57 | 42.93266 | 26.43912 | 36052 ft | 422 kts | 313° |
| 2026-05-07 17:58 | 42.97505 | 26.38321 | 36045 ft | 424 kts | 313° |
| 2026-05-07 17:58 | 43.01713 | 26.32738 | 36049 ft | 425 kts | 313° |
| 2026-05-07 17:59 | 43.05961 | 26.27085 | 36052 ft | 428 kts | 313° |
| 2026-05-07 17:59 | 43.10236 | 26.21383 | 36042 ft | 430 kts | 313° |
| 2026-05-07 18:00 | 43.14541 | 26.15630 | 36043 ft | 432 kts | 313° |
| 2026-05-07 18:00 | 43.18850 | 26.09861 | 36034 ft | 434 kts | 313° |
| 2026-05-07 18:01 | 43.23175 | 26.04059 | 36035 ft | 435 kts | 313° |
| 2026-05-07 18:01 | 43.27472 | 25.98282 | 36025 ft | 435 kts | 313° |
| 2026-05-07 18:02 | 43.33938 | 25.89565 | 36032 ft | 434 kts | 313° |
| 2026-05-07 18:03 | 43.38244 | 25.83746 | 36025 ft | 433 kts | 312° |
| 2026-05-07 18:03 | 43.42533 | 25.77936 | 36030 ft | 432 kts | 312° |
| 2026-05-07 18:04 | 43.46811 | 25.72130 | 36024 ft | 431 kts | 312° |
| 2026-05-07 18:04 | 43.51051 | 25.66362 | 36021 ft | 431 kts | 312° |
| 2026-05-07 18:05 | 43.55316 | 25.60550 | 36022 ft | 430 kts | 312° |
| 2026-05-07 18:05 | 43.59566 | 25.54744 | 36023 ft | 429 kts | 312° |
| 2026-05-07 18:06 | 43.63817 | 25.48925 | 36025 ft | 429 kts | 312° |
| 2026-05-07 18:06 | 43.68032 | 25.43143 | 36023 ft | 430 kts | 312° |
| 2026-05-07 18:07 | 43.72287 | 25.37295 | 36028 ft | 430 kts | 312° |
| 2026-05-07 18:07 | 43.76532 | 25.31447 | 36030 ft | 431 kts | 312° |
| 2026-05-07 18:08 | 43.80759 | 25.25613 | 36034 ft | 432 kts | 311° |
| 2026-05-07 18:08 | 43.85019 | 25.19720 | 36034 ft | 433 kts | 311° |
| 2026-05-07 18:09 | 43.89281 | 25.13811 | 36039 ft | 433 kts | 311° |
| 2026-05-07 18:09 | 43.93551 | 25.07878 | 36041 ft | 434 kts | 311° |
| 2026-05-07 18:10 | 43.97795 | 25.01970 | 36038 ft | 435 kts | 311° |
| 2026-05-07 18:10 | 44.02070 | 24.96005 | 36042 ft | 435 kts | 311° |
| 2026-05-07 18:11 | 44.06345 | 24.90028 | 36041 ft | 436 kts | 311° |
| 2026-05-07 18:11 | 44.10619 | 24.84039 | 36037 ft | 436 kts | 311° |
| 2026-05-07 18:12 | 44.14861 | 24.78082 | 36041 ft | 435 kts | 311° |
| 2026-05-07 18:12 | 44.19124 | 24.72082 | 36036 ft | 435 kts | 311° |
| 2026-05-07 18:13 | 44.23382 | 24.66076 | 36046 ft | 435 kts | 311° |
| 2026-05-07 18:13 | 44.27641 | 24.60055 | 36037 ft | 435 kts | 311° |
| 2026-05-07 18:14 | 44.31864 | 24.54073 | 36041 ft | 435 kts | 311° |
| 2026-05-07 18:14 | 44.36103 | 24.48054 | 36040 ft | 435 kts | 311° |
| 2026-05-07 18:15 | 44.40345 | 24.42017 | 36040 ft | 435 kts | 311° |
| 2026-05-07 18:15 | 44.44583 | 24.35974 | 36043 ft | 435 kts | 311° |
| 2026-05-07 18:16 | 44.48110 | 24.30934 | 36042 ft | 436 kts | 311° |
| 2026-05-07 18:16 | 44.52356 | 24.24855 | 36043 ft | 436 kts | 311° |
| 2026-05-07 18:17 | 44.56595 | 24.18771 | 36046 ft | 436 kts | 310° |
| 2026-05-07 18:17 | 44.60837 | 24.12671 | 36054 ft | 436 kts | 310° |
| 2026-05-07 18:18 | 44.65049 | 24.06599 | 36052 ft | 437 kts | 310° |
| 2026-05-07 18:18 | 44.69294 | 24.00467 | 36047 ft | 438 kts | 310° |
| 2026-05-07 18:19 | 44.73538 | 23.94322 | 36045 ft | 438 kts | 310° |
| 2026-05-07 18:19 | 44.77758 | 23.88199 | 36049 ft | 438 kts | 310° |
| 2026-05-07 18:20 | 44.82005 | 23.82023 | 36046 ft | 438 kts | 310° |
| 2026-05-07 18:20 | 44.86230 | 23.75866 | 36054 ft | 437 kts | 310° |
| 2026-05-07 18:21 | 44.90468 | 23.69673 | 36062 ft | 437 kts | 310° |
| 2026-05-07 18:21 | 44.94668 | 23.63524 | 36059 ft | 437 kts | 310° |
| 2026-05-07 18:22 | 44.98886 | 23.57334 | 36059 ft | 437 kts | 310° |
| 2026-05-07 18:22 | 45.03101 | 23.51133 | 36049 ft | 437 kts | 310° |
| 2026-05-07 18:23 | 45.07314 | 23.44923 | 36062 ft | 437 kts | 309° |
| 2026-05-07 18:23 | 45.11521 | 23.38706 | 36063 ft | 437 kts | 309° |
| 2026-05-07 18:24 | 45.15693 | 23.32528 | 36072 ft | 436 kts | 309° |
| 2026-05-07 18:24 | 45.19885 | 23.26305 | 36068 ft | 436 kts | 309° |
| 2026-05-07 18:25 | 45.24081 | 23.20064 | 36067 ft | 437 kts | 309° |
| 2026-05-07 18:25 | 45.28283 | 23.13797 | 36073 ft | 438 kts | 309° |
| 2026-05-07 18:26 | 45.32472 | 23.07537 | 36065 ft | 439 kts | 309° |
| 2026-05-07 18:26 | 45.36678 | 23.01235 | 36068 ft | 439 kts | 309° |
| 2026-05-07 18:27 | 45.40890 | 22.94913 | 36061 ft | 440 kts | 309° |
| 2026-05-07 18:27 | 45.45092 | 22.88590 | 36051 ft | 440 kts | 309° |
| 2026-05-07 18:28 | 45.49277 | 22.82277 | 36055 ft | 440 kts | 309° |
| 2026-05-07 18:28 | 45.53481 | 22.75921 | 36052 ft | 440 kts | 309° |
| 2026-05-07 18:29 | 45.57683 | 22.69553 | 36041 ft | 440 kts | 309° |
| 2026-05-07 18:29 | 45.61876 | 22.63183 | 36038 ft | 440 kts | 309° |
| 2026-05-07 18:30 | 45.66039 | 22.56844 | 36044 ft | 440 kts | 309° |
| 2026-05-07 18:30 | 45.70223 | 22.50458 | 36031 ft | 441 kts | 309° |
| 2026-05-07 18:31 | 45.74424 | 22.44033 | 36040 ft | 441 kts | 309° |
| 2026-05-07 18:31 | 45.78603 | 22.37626 | 36042 ft | 440 kts | 309° |
| 2026-05-07 18:32 | 45.82782 | 22.31202 | 36033 ft | 440 kts | 309° |
| 2026-05-07 18:32 | 45.86929 | 22.24813 | 36032 ft | 439 kts | 309° |
| 2026-05-07 18:33 | 45.91083 | 22.18400 | 36032 ft | 439 kts | 309° |
| 2026-05-07 18:33 | 45.95229 | 22.11982 | 36023 ft | 439 kts | 309° |
| 2026-05-07 18:34 | 45.99387 | 22.05531 | 36016 ft | 438 kts | 309° |
| 2026-05-07 18:34 | 46.01430 | 22.02359 | 36001 ft | 426 kts | 309° |
| 2026-05-07 18:34 | 46.03414 | 21.99280 | 36002 ft | 411 kts | 308° |
| 2026-05-07 18:34 | 46.05326 | 21.96309 | 35998 ft | 398 kts | 308° |
| 2026-05-07 18:35 | 46.07172 | 21.93435 | 35999 ft | 385 kts | 308° |
| 2026-05-07 18:35 | 46.08987 | 21.90599 | 35688 ft | 392 kts | 308° |
| 2026-05-07 18:35 | 46.10868 | 21.87639 | 35054 ft | 416 kts | 308° |
| 2026-05-07 18:35 | 46.12870 | 21.84486 | 34502 ft | 437 kts | 309° |
| 2026-05-07 18:36 | 46.14952 | 21.81214 | 33894 ft | 443 kts | 309° |
| 2026-05-07 18:36 | 46.17035 | 21.77952 | 33209 ft | 442 kts | 309° |
| 2026-05-07 18:36 | 46.19120 | 21.74688 | 32561 ft | 441 kts | 309° |
| 2026-05-07 18:36 | 46.21197 | 21.71431 | 31916 ft | 440 kts | 309° |
| 2026-05-07 18:37 | 46.23272 | 21.68171 | 31290 ft | 440 kts | 308° |
| 2026-05-07 18:37 | 46.25340 | 21.64914 | 30672 ft | 439 kts | 308° |
| 2026-05-07 18:37 | 46.27393 | 21.61677 | 30049 ft | 433 kts | 308° |
| 2026-05-07 18:37 | 46.29385 | 21.58534 | 29362 ft | 426 kts | 308° |
| 2026-05-07 18:38 | 46.31372 | 21.55394 | 28673 ft | 419 kts | 308° |
| 2026-05-07 18:38 | 46.33326 | 21.52301 | 27996 ft | 413 kts | 308° |
| 2026-05-07 18:38 | 46.35253 | 21.49247 | 27339 ft | 407 kts | 308° |
| 2026-05-07 18:38 | 46.37152 | 21.46232 | 26699 ft | 402 kts | 308° |
| 2026-05-07 18:39 | 46.39010 | 21.43281 | 26405 ft | 389 kts | 307° |
| 2026-05-07 18:39 | 46.40816 | 21.40410 | 25982 ft | 381 kts | 307° |
| 2026-05-07 18:39 | 46.42590 | 21.37582 | 25593 ft | 379 kts | 307° |
| 2026-05-07 18:39 | 46.44365 | 21.34747 | 25201 ft | 381 kts | 307° |
| 2026-05-07 18:40 | 46.46133 | 21.31922 | 24799 ft | 382 kts | 307° |
| 2026-05-07 18:40 | 46.47915 | 21.29079 | 24382 ft | 379 kts | 307° |
| 2026-05-07 18:40 | 46.49642 | 21.26203 | 23963 ft | 374 kts | 302° |
| 2026-05-07 18:40 | 46.51101 | 21.23110 | 23586 ft | 369 kts | 298° |
| 2026-05-07 18:41 | 46.52476 | 21.19981 | 23132 ft | 367 kts | 297° |
| 2026-05-07 18:41 | 46.53829 | 21.16851 | 22732 ft | 364 kts | 297° |
| 2026-05-07 18:41 | 46.55165 | 21.13754 | 22340 ft | 361 kts | 297° |
| 2026-05-07 18:41 | 46.56498 | 21.10675 | 21963 ft | 359 kts | 297° |
| 2026-05-07 18:42 | 46.57831 | 21.07609 | 21598 ft | 357 kts | 298° |
| 2026-05-07 18:42 | 46.59158 | 21.04563 | 21225 ft | 356 kts | 298° |
| 2026-05-07 18:42 | 46.60467 | 21.01566 | 20867 ft | 355 kts | 298° |
| 2026-05-07 18:42 | 46.61790 | 20.98535 | 20504 ft | 354 kts | 298° |
| 2026-05-07 18:43 | 46.63113 | 20.95505 | 20142 ft | 354 kts | 298° |
| 2026-05-07 18:43 | 46.64434 | 20.92478 | 19782 ft | 353 kts | 298° |
| 2026-05-07 18:43 | 46.65751 | 20.89457 | 19409 ft | 353 kts | 299° |
| 2026-05-07 18:43 | 46.67064 | 20.86443 | 19059 ft | 352 kts | 299° |
| 2026-05-07 18:44 | 46.68376 | 20.83428 | 18693 ft | 351 kts | 299° |
| 2026-05-07 18:44 | 46.69682 | 20.80427 | 18330 ft | 350 kts | 299° |
| 2026-05-07 18:44 | 46.71004 | 20.77471 | 18023 ft | 344 kts | 301° |
| 2026-05-07 18:44 | 46.72343 | 20.74610 | 17747 ft | 341 kts | 301° |
| 2026-05-07 18:45 | 46.73694 | 20.71755 | 17448 ft | 342 kts | 301° |
| 2026-05-07 18:45 | 46.75028 | 20.68936 | 17108 ft | 341 kts | 301° |
| 2026-05-07 18:45 | 46.76370 | 20.66092 | 16767 ft | 338 kts | 301° |
| 2026-05-07 18:45 | 46.77696 | 20.63270 | 16431 ft | 336 kts | 301° |
| 2026-05-07 18:46 | 46.79012 | 20.60458 | 16097 ft | 334 kts | 301° |
| 2026-05-07 18:46 | 46.80321 | 20.57656 | 15771 ft | 333 kts | 301° |
| 2026-05-07 18:46 | 46.81626 | 20.54856 | 15444 ft | 332 kts | 301° |
| 2026-05-07 18:46 | 46.82922 | 20.52070 | 15117 ft | 331 kts | 301° |
| 2026-05-07 18:47 | 46.84213 | 20.49289 | 14791 ft | 330 kts | 301° |
| 2026-05-07 18:47 | 46.85492 | 20.46534 | 14464 ft | 325 kts | 301° |
| 2026-05-07 18:47 | 46.86758 | 20.43804 | 14141 ft | 321 kts | 301° |
| 2026-05-07 18:47 | 46.87990 | 20.41143 | 14056 ft | 322 kts | 301° |
| 2026-05-07 18:48 | 46.89249 | 20.38421 | 14018 ft | 322 kts | 301° |
| 2026-05-07 18:48 | 46.90494 | 20.35726 | 14011 ft | 318 kts | 301° |
| 2026-05-07 18:48 | 46.91730 | 20.33050 | 14015 ft | 318 kts | 301° |
| 2026-05-07 18:48 | 46.92971 | 20.30357 | 13880 ft | 319 kts | 301° |
| 2026-05-07 18:49 | 46.94210 | 20.27669 | 13468 ft | 316 kts | 301° |
| 2026-05-07 18:49 | 46.95019 | 20.25913 | 13206 ft | 312 kts | 301° |
| 2026-05-07 18:49 | 46.96379 | 20.22960 | 12756 ft | 305 kts | 301° |
| 2026-05-07 18:49 | 46.97559 | 20.20394 | 12367 ft | 300 kts | 301° |
| 2026-05-07 18:50 | 46.98714 | 20.17879 | 11982 ft | 295 kts | 301° |
| 2026-05-07 18:50 | 46.99852 | 20.15399 | 11605 ft | 291 kts | 301° |
| 2026-05-07 18:50 | 47.00975 | 20.12948 | 11225 ft | 287 kts | 301° |
| 2026-05-07 18:50 | 47.02082 | 20.10530 | 10859 ft | 284 kts | 301° |
| 2026-05-07 18:51 | 47.03177 | 20.08136 | 10499 ft | 281 kts | 301° |
| 2026-05-07 18:51 | 47.04259 | 20.05769 | 10135 ft | 278 kts | 301° |
| 2026-05-07 18:51 | 47.05316 | 20.03458 | 10016 ft | 268 kts | 300° |
| 2026-05-07 18:51 | 47.06350 | 20.01193 | 10016 ft | 267 kts | 300° |
| 2026-05-07 18:52 | 47.07386 | 19.98918 | 9900 ft | 270 kts | 300° |
| 2026-05-07 18:52 | 47.08425 | 19.96633 | 9498 ft | 272 kts | 300° |
| 2026-05-07 18:52 | 47.09467 | 19.94344 | 9097 ft | 268 kts | 300° |
| 2026-05-07 18:52 | 47.10495 | 19.92084 | 8705 ft | 264 kts | 300° |
| 2026-05-07 18:53 | 47.11508 | 19.89855 | 8322 ft | 261 kts | 300° |
| 2026-05-07 18:53 | 47.12509 | 19.87652 | 7948 ft | 257 kts | 300° |
| 2026-05-07 18:53 | 47.13497 | 19.85475 | 7623 ft | 252 kts | 300° |
| 2026-05-07 18:53 | 47.14452 | 19.83371 | 7296 ft | 248 kts | 300° |
| 2026-05-07 18:54 | 47.15401 | 19.81276 | 6977 ft | 244 kts | 300° |
| 2026-05-07 18:54 | 47.16332 | 19.79219 | 6658 ft | 240 kts | 300° |
| 2026-05-07 18:54 | 47.17249 | 19.77192 | 6366 ft | 236 kts | 300° |
| 2026-05-07 18:54 | 47.18147 | 19.75206 | 6051 ft | 231 kts | 300° |
| 2026-05-07 18:55 | 47.19032 | 19.73247 | 5734 ft | 228 kts | 300° |
| 2026-05-07 18:55 | 47.19894 | 19.71339 | 5471 ft | 219 kts | 300° |
| 2026-05-07 18:55 | 47.20724 | 19.69499 | 5163 ft | 212 kts | 300° |
| 2026-05-07 18:55 | 47.21529 | 19.67712 | 4853 ft | 206 kts | 300° |
| 2026-05-07 18:56 | 47.22312 | 19.65974 | 4536 ft | 201 kts | 300° |
| 2026-05-07 18:56 | 47.23075 | 19.64278 | 4225 ft | 196 kts | 300° |
| 2026-05-07 18:56 | 47.23815 | 19.62632 | 3943 ft | 190 kts | 300° |
| 2026-05-07 18:56 | 47.24539 | 19.61023 | 3647 ft | 186 kts | 300° |
| 2026-05-07 18:57 | 47.25240 | 19.59462 | 3347 ft | 183 kts | 300° |
| 2026-05-07 18:57 | 47.25937 | 19.57910 | 3067 ft | 179 kts | 301° |
| 2026-05-07 18:57 | 47.26622 | 19.56383 | 3034 ft | 181 kts | 301° |
| 2026-05-07 18:57 | 47.27312 | 19.54843 | 2994 ft | 178 kts | 301° |
| 2026-05-07 18:58 | 47.27987 | 19.53340 | 2992 ft | 173 kts | 301° |
| 2026-05-07 18:58 | 47.28649 | 19.51863 | 3001 ft | 173 kts | 301° |
| 2026-05-07 18:58 | 47.29317 | 19.50372 | 3016 ft | 175 kts | 301° |
| 2026-05-07 18:58 | 47.30060 | 19.48995 | 2998 ft | 168 kts | 310° |
| 2026-05-07 18:59 | 47.30844 | 19.47778 | 2975 ft | 164 kts | 311° |
| 2026-05-07 18:59 | 47.31624 | 19.46561 | 3010 ft | 161 kts | 310° |
| 2026-05-07 18:59 | 47.32373 | 19.45373 | 3045 ft | 159 kts | 310° |
| 2026-05-07 18:59 | 47.33147 | 19.44190 | 3003 ft | 160 kts | 310° |
| 2026-05-07 19:00 | 47.33912 | 19.42984 | 2880 ft | 162 kts | 310° |
| 2026-05-07 19:00 | 47.34673 | 19.41759 | 2668 ft | 161 kts | 310° |
| 2026-05-07 19:00 | 47.35402 | 19.40577 | 2479 ft | 149 kts | 310° |
| 2026-05-07 19:00 | 47.36096 | 19.39449 | 2260 ft | 146 kts | 310° |
| 2026-05-07 19:01 | 47.36772 | 19.38350 | 2072 ft | 144 kts | 310° |
| 2026-05-07 19:01 | 47.37444 | 19.37257 | 1877 ft | 144 kts | 310° |
| 2026-05-07 19:01 | 47.38107 | 19.36181 | 1683 ft | 143 kts | 310° |
| 2026-05-07 19:01 | 47.38776 | 19.35096 | 1479 ft | 142 kts | 310° |
| 2026-05-07 19:02 | 47.39443 | 19.34012 | 1288 ft | 143 kts | 311° |
| 2026-05-07 19:02 | 47.40119 | 19.32918 | 1096 ft | 144 kts | 311° |
| 2026-05-07 19:02 | 47.40787 | 19.31824 | 890 ft | 145 kts | 311° |
| 2026-05-07 19:02 | 47.41463 | 19.30714 | 673 ft | 145 kts | 313° |
| 2026-05-07 19:03 | 47.42143 | 19.29626 | 501 ft | 142 kts | 313° |
| 2026-05-07 19:03 | 47.42783 | 19.28593 | 450 ft | 129 kts | 313° |
| 2026-05-07 19:03 | 47.43255 | 19.27828 | 462 ft | 70 kts | 313° |
| 2026-05-07 19:03 | 47.43490 | 19.27459 | 470 ft | 42 kts | 313° |
| 2026-05-07 19:04 | 47.43642 | 19.27227 | 471 ft | 26 kts | 304° |
| 2026-05-07 19:04 | 47.43722 | 19.27022 | 470 ft | 22 kts | 294° |
| 2026-05-07 19:04 | 47.43760 | 19.26817 | 464 ft | 16 kts | 292° |
| 2026-05-07 19:04 | 47.43779 | 19.26733 | 459 ft | 8 kts | 289° |
| 2026-05-07 19:05 | 47.43787 | 19.26646 | 459 ft | 9 kts | 276° |
| 2026-05-07 19:05 | 47.43794 | 19.26552 | 458 ft | 4 kts | 276° |
| 2026-05-07 19:05 | 47.43797 | 19.26515 | 458 ft | 4 kts | 276° |
| 2026-05-07 19:05 | 47.43799 | 19.26476 | 457 ft | 4 kts | 269° |
| 2026-05-07 19:06 | 47.43779 | 19.26458 | 456 ft | 4 kts | 176° |
| 2026-05-07 19:06 | 47.43714 | 19.26539 | 457 ft | 8 kts | 133° |
| 2026-05-07 19:06 | 47.43674 | 19.26600 | 457 ft | 8 kts | 133° |
| 2026-05-07 19:07 | 47.43637 | 19.26660 | 457 ft | 8 kts | 133° |
| 2026-05-07 19:07 | 47.43600 | 19.26718 | 457 ft | 8 kts | 131° |
| 2026-05-07 19:07 | 47.43564 | 19.26779 | 457 ft | 8 kts | 131° |
| 2026-05-07 19:07 | 47.43526 | 19.26842 | 457 ft | 8 kts | 132° |
| 2026-05-07 19:08 | 47.43489 | 19.26902 | 457 ft | 8 kts | 132° |
| 2026-05-07 19:08 | 47.43450 | 19.26965 | 457 ft | 9 kts | 133° |
| 2026-05-07 19:08 | 47.43404 | 19.27037 | 457 ft | 10 kts | 133° |
| 2026-05-07 19:08 | 47.43350 | 19.27084 | 457 ft | 9 kts | 182° |
| 2026-05-07 19:09 | 47.43305 | 19.27021 | 457 ft | 9 kts | 246° |
| 2026-05-07 19:09 | 47.43307 | 19.26932 | 456 ft | 9 kts | 300° |
| 2026-05-07 19:09 | 47.43348 | 19.26866 | 457 ft | 9 kts | 313° |
| 2026-05-07 19:09 | 47.43389 | 19.26803 | 457 ft | 8 kts | 313° |
| 2026-05-07 19:10 | 47.43427 | 19.26741 | 457 ft | 8 kts | 310° |
| 2026-05-07 19:10 | 47.43463 | 19.26679 | 457 ft | 8 kts | 310° |
| 2026-05-07 19:10 | 47.43480 | 19.26650 | 457 ft | 2 kts | 310° |
| 2026-05-07 19:10 | 47.43486 | 19.26632 | 456 ft | 2 kts | 288° |
| 2026-05-07 19:11 | 47.43482 | 19.26614 | 457 ft | 2 kts | 236° |
| 2026-05-07 19:11 | 47.43472 | 19.26602 | 454 ft | 2 kts | 221° |
| 2026-05-07 19:11 | 47.43462 | 19.26589 | 456 ft | 2 kts | 222° |
| 2026-05-07 19:11 | 47.43453 | 19.26577 | 457 ft | 2 kts | 222° |
| 2026-05-07 19:12 | 47.43450 | 19.26573 | 457 ft | 0 kts | 222° |